Time;durP1;ratioP1;P1;durP2;ratioP2;P2;SDS_P1;SDS_P2;PMS_P1;PMS_P2;Temp;Humidity;BMP_temperature;BMP_pressure;BME280_temperature;BME280_humidity;BME280_pressure;Samples;Min_cycle;Max_cycle;Signal;HPM_P1;HPM_P2
2023/04/19 07:23:15;;;;;;;8.90;7.13;;;;;;;-145.79;52.61;78806.16;5280416;28;20706;-68
2023/04/19 07:25:46;;;;;;;7.60;6.90;;;;;;;-145.79;53.14;78789.19;5269999;28;20044;-69
2023/04/19 07:28:17;;;;;;;9.68;6.32;;;;;;;-145.79;53.03;78780.72;5258463;28;20025;-68
2023/04/19 07:30:49;;;;;;;9.05;6.88;;;;;;;-145.79;52.54;78774.34;5259320;28;20025;-69
2023/04/19 07:33:29;;;;;;;6.95;6.30;;;;;;;-145.79;52.49;78759.50;5258880;28;20025;-69
2023/04/19 07:36:01;;;;;;;6.82;6.00;;;;;;;-145.79;51.62;78746.78;5258427;28;20033;-68
2023/04/19 07:38:32;;;;;;;7.55;6.55;;;;;;;-145.79;50.45;78751.03;5258767;28;20029;-70
2023/04/19 07:41:04;;;;;;;9.70;6.30;;;;;;;-145.79;50.84;78736.19;5258888;28;20435;-69
2023/04/19 07:43:35;;;;;;;10.52;6.45;;;;;;;-145.79;50.37;78740.44;5258584;28;20024;-68
2023/04/19 07:46:11;;;;;;;10.55;7.22;;;;;;;-145.79;49.47;78742.53;5258520;28;20043;-68
2023/04/19 07:48:43;;;;;;;7.15;6.20;;;;;;;-145.79;49.92;78740.44;5257763;28;20032;-70
2023/04/19 07:51:15;;;;;;;7.68;5.97;;;;;;;-145.79;49.95;78725.59;5259003;28;20095;-69
2023/04/19 07:53:47;;;;;;;7.30;5.80;;;;;;;-145.79;50.16;78704.38;5258251;28;20036;-69
2023/04/19 07:56:19;;;;;;;6.55;5.95;;;;;;;-145.79;49.67;78702.25;5257737;28;20026;-69
2023/04/19 07:58:53;;;;;;;6.72;6.03;;;;;;;-145.79;49.28;78687.41;5270519;28;20036;-70
2023/04/19 08:01:24;;;;;;;7.15;6.07;;;;;;;-145.79;48.93;78683.19;5278887;28;20024;-69
2023/04/19 08:03:56;;;;;;;7.72;6.57;;;;;;;-145.79;48.08;78683.19;5278450;28;20032;-68
2023/04/19 08:06:28;;;;;;;9.07;5.97;;;;;;;-145.79;48.03;78685.31;5279109;28;20021;-69
2023/04/19 08:08:59;;;;;;;7.22;6.07;;;;;;;-145.79;48.56;78666.22;5278712;28;20027;-69
2023/04/19 08:11:31;;;;;;;7.32;6.18;;;;;;;-145.79;47.75;78653.50;5278905;28;20021;-71
2023/04/19 08:14:02;;;;;;;7.13;6.40;;;;;;;-145.79;48.29;78645.00;5278739;28;20101;-71
2023/04/19 08:16:33;;;;;;;7.05;5.90;;;;;;;-145.79;48.09;78636.53;5277823;28;20021;-68
2023/04/19 08:19:05;;;;;;;8.90;6.60;;;;;;;-145.79;47.84;78628.06;5278095;28;20021;-71
2023/04/19 08:21:36;;;;;;;9.65;6.43;;;;;;;-145.79;47.14;78619.56;5278602;28;20040;-68
2023/04/19 08:24:07;;;;;;;8.52;5.93;;;;;;;-145.79;47.17;78615.34;5272695;28;20025;-69
2023/04/19 08:26:39;;;;;;;7.43;5.72;;;;;;;-145.79;47.51;78602.59;5257573;28;20017;-69
2023/04/19 08:29:10;;;;;;;7.15;5.80;;;;;;;-145.79;46.95;78594.13;5257693;28;20044;-69
2023/04/19 08:31:43;;;;;;;8.60;6.40;;;;;;;-145.79;46.68;78608.97;5257044;28;20487;-69
2023/04/19 08:34:14;;;;;;;7.10;5.95;;;;;;;-145.79;46.73;78602.59;5260015;28;20451;-68
2023/04/19 08:36:45;;;;;;;7.10;6.05;;;;;;;-145.79;45.84;78589.88;5264686;28;20017;-69
2023/04/19 08:39:17;;;;;;;7.07;5.78;;;;;;;-145.79;46.07;78577.16;5264037;28;20102;-68
2023/04/19 08:41:49;;;;;;;6.78;5.85;;;;;;;-145.79;45.56;78577.16;5264387;28;20047;-69
2023/04/19 08:44:21;;;;;;;7.68;5.80;;;;;;;-145.79;44.82;78570.81;5263942;28;20542;-69
2023/04/19 08:46:53;;;;;;;7.97;5.68;;;;;;;-145.79;44.75;78551.72;5263897;28;20025;-69
2023/04/19 08:49:25;;;;;;;6.65;5.95;;;;;;;-145.79;44.29;78536.88;5264077;28;20132;-69
2023/04/19 08:51:57;;;;;;;8.88;5.95;;;;;;;-145.79;43.92;78536.88;5243392;28;20033;-69
2023/04/19 08:54:29;;;;;;;6.63;5.93;;;;;;;-145.79;42.91;78534.75;5243158;28;20436;-68
2023/04/19 08:57:02;;;;;;;9.02;6.60;;;;;;;-145.79;42.99;78528.41;5243415;28;20025;-69
2023/04/19 08:59:34;;;;;;;9.23;6.78;;;;;;;-145.79;41.76;78528.41;5243168;28;20021;-68
2023/04/19 09:02:06;;;;;;;8.38;5.57;;;;;;;-145.79;41.91;78530.53;5264224;28;20033;-68
2023/04/19 09:04:38;;;;;;;8.50;6.63;;;;;;;-145.79;41.81;78526.28;5263779;28;20049;-68
2023/04/19 09:07:22;;;;;;;9.10;6.05;;;;;;;-145.79;42.15;78517.81;5258070;28;20033;-69
2023/04/19 09:10:06;;;;;;;7.72;5.78;;;;;;;-145.79;41.44;78496.59;5250232;28;20025;-69
2023/04/19 09:12:39;;;;;;;8.32;6.55;;;;;;;-145.79;41.42;78483.88;5261523;28;20041;-70
2023/04/19 09:15:11;;;;;;;7.90;5.57;;;;;;;-145.79;41.19;78475.41;5262806;28;20032;-70
2023/04/19 09:18:01;;;;;;;8.07;5.13;;;;;;;-145.79;40.78;78466.91;5264170;28;20388;-70
2023/04/19 09:20:40;;;;;;;7.80;5.97;;;;;;;-145.79;40.56;78447.84;5260967;28;20040;-71
2023/04/19 09:23:15;;;;;;;7.20;4.50;;;;;;;-145.79;40.72;78439.34;5261789;28;20396;-70
2023/04/19 09:25:56;;;;;;;7.28;4.60;;;;;;;-145.79;40.95;78426.63;5244069;28;20029;-70
2023/04/19 09:28:28;;;;;;;5.50;4.50;;;;;;;-145.79;41.06;78424.50;5242605;28;20469;-70
2023/04/19 09:31:12;;;;;;;6.07;3.92;;;;;;;-145.79;41.10;78411.78;5242572;28;20032;-70
2023/04/19 09:33:44;;;;;;;5.97;4.05;;;;;;;-145.79;44.19;78405.44;5243632;28;20388;-69
2023/04/19 09:36:36;;;;;;;5.13;4.32;;;;;;;-145.79;40.97;78401.19;5241759;28;20038;-69
2023/04/19 09:39:07;;;;;;;7.03;4.05;;;;;;;-145.79;40.32;78418.16;5242162;28;20029;-69
2023/04/19 09:41:52;;;;;;;5.88;4.03;;;;;;;-145.79;38.45;78403.31;5250463;28;20025;-72
2023/04/19 09:44:23;;;;;;;4.60;3.97;;;;;;;-145.79;37.94;78411.78;5262784;28;20378;-70
2023/04/19 09:46:55;;;;;;;7.93;5.90;;;;;;;-145.79;42.76;78403.31;5262745;28;20021;-74
2023/04/19 09:49:26;;;;;;;4.90;4.40;;;;;;;-145.79;38.03;78403.31;5262158;28;20436;-79
2023/04/19 09:51:57;;;;;;;5.15;4.00;;;;;;;-145.79;38.95;78377.88;5267978;28;20029;-79
2023/04/19 09:54:31;;;;;;;4.28;3.75;;;;;;;-145.79;38.30;78384.22;5263780;28;20468;-78
2023/04/19 09:57:02;;;;;;;5.88;4.00;;;;;;;-145.79;37.66;78373.63;5262836;28;20055;-76
2023/04/19 09:59:34;;;;;;;4.20;3.35;;;;;;;-145.79;38.64;78390.59;5247066;28;20029;-75
2023/04/19 10:02:06;;;;;;;7.43;4.15;;;;;;;-145.79;38.01;78390.59;5262534;28;20029;-76
2023/04/19 10:04:41;;;;;;;8.75;4.18;;;;;;;-145.79;39.33;78409.66;5257662;28;20078;-77
2023/04/19 10:07:13;;;;;;;5.03;4.00;;;;;;;-145.79;37.48;78407.53;5262765;28;20044;-74
2023/04/19 10:09:48;;;;;;;5.70;3.90;;;;;;;-145.79;37.99;78388.47;5260398;28;20071;-76
2023/04/19 10:12:24;;;;;;;6.22;3.78;;;;;;;-145.79;36.04;78388.47;5251284;28;20035;-76
2023/04/19 10:14:59;;;;;;;4.57;2.97;;;;;;;-145.79;37.61;78382.09;5259120;28;20365;-76
2023/04/19 10:17:30;;;;;;;4.13;3.53;;;;;;;-145.79;34.39;78363.03;5259804;28;20029;-76
2023/04/19 10:20:06;;;;;;;6.93;3.15;;;;;;;-145.79;35.82;78341.81;5262667;28;20353;-77
2023/04/19 10:22:38;;;;;;;8.05;3.30;;;;;;;-145.79;34.58;78343.94;5259497;28;20502;-76
2023/04/19 10:25:14;;;;;;;3.78;3.30;;;;;;;-145.79;35.73;78365.16;5261579;28;20028;-77
2023/04/19 10:27:47;;;;;;;4.63;3.45;;;;;;;-145.79;35.70;78365.16;5248874;28;20087;-77
2023/04/19 10:30:23;;;;;;;8.88;7.00;;;;;;;-145.79;37.17;78365.16;5261049;28;20325;-77
2023/04/19 10:32:58;;;;;;;10.95;4.22;;;;;;;-145.79;36.99;78352.44;5252821;28;20472;-79
2023/04/19 10:35:40;;;;;;;4.28;3.50;;;;;;;-145.79;35.87;78356.66;5241366;28;20079;-78
2023/04/19 10:38:15;;;;;;;8.38;4.60;;;;;;;-145.79;35.68;78339.69;5241395;28;20112;-79
2023/04/19 10:40:55;;;;;;;4.38;3.20;;;;;;;-145.79;36.71;78339.69;5241553;28;20033;-75
2023/04/19 10:43:29;;;;;;;2.92;2.50;;;;;;;-145.79;33.94;78339.69;5243009;28;20033;-76
2023/04/19 10:46:11;;;;;;;4.85;2.72;;;;;;;-145.79;34.36;78348.19;5239882;28;20052;-76
2023/04/19 10:49:04;;;;;;;4.75;3.40;;;;;;;-145.79;34.23;78337.59;5241085;28;20583;-76
2023/04/19 10:51:43;;;;;;;6.80;2.75;;;;;;;-145.79;36.78;78343.94;5240420;28;20030;-75
2023/04/19 10:54:26;;;;;;;6.72;2.67;;;;;;;-145.79;34.92;78326.97;5241358;28;20017;-69
2023/04/19 10:57:10;;;;;;;6.50;2.45;;;;;;;-145.79;34.50;78326.97;5246080;28;20051;-75
2023/04/19 10:59:43;;;;;;;5.35;2.50;;;;;;;-145.79;33.91;78322.75;5261096;28;20025;-75
2023/04/19 11:02:26;;;;;;;3.65;2.10;;;;;;;-145.79;33.03;78324.84;5261839;28;20033;-75
2023/04/19 11:05:00;;;;;;;3.83;2.83;;;;;;;-145.79;34.28;78326.97;5251188;28;20049;-77
2023/04/19 11:07:37;;;;;;;3.28;2.25;;;;;;;-145.79;36.75;78305.78;5240723;28;20025;-77
2023/04/19 11:10:09;;;;;;;2.28;1.90;;;;;;;-145.79;35.73;78305.78;5250096;28;20112;-76
2023/04/19 11:12:43;;;;;;;4.80;3.00;;;;;;;-145.79;33.45;78284.56;5256881;28;20476;-74
2023/04/19 11:15:15;;;;;;;6.57;2.00;;;;;;;-145.79;32.94;78276.09;5252347;28;20075;-73
2023/04/19 11:17:50;;;;;;;3.45;1.83;;;;;;;-145.79;34.39;78271.84;5260686;28;20025;-75
2023/04/19 11:20:22;;;;;;;3.42;2.45;;;;;;;-145.79;33.77;78254.91;5261674;28;20021;-79
2023/04/19 11:22:59;;;;;;;5.15;2.25;;;;;;;-145.79;31.61;78261.25;5256067;28;20047;-74
2023/04/19 11:25:32;;;;;;;3.33;2.15;;;;;;;-145.79;33.36;78273.97;5261213;28;20052;-74
2023/04/19 11:28:04;;;;;;;3.53;2.65;;;;;;;-145.79;32.98;78267.63;5260341;28;20021;-75
2023/04/19 11:30:36;;;;;;;13.43;10.10;;;;;;;-145.79;32.03;78259.13;5261006;28;20416;-75
2023/04/19 11:33:07;;;;;;;3.22;2.28;;;;;;;-145.79;35.55;78261.25;5260668;28;20550;-75
2023/04/19 11:35:40;;;;;;;4.32;2.90;;;;;;;-145.79;33.73;78231.56;5260567;28;20048;-74
2023/04/19 11:38:12;;;;;;;3.92;2.85;;;;;;;-145.79;35.18;78240.06;5249550;28;20029;-73
2023/04/19 11:40:43;;;;;;;3.47;2.35;;;;;;;-145.79;33.51;78237.94;5249168;28;20514;-73
2023/04/19 11:43:15;;;;;;;8.95;3.30;;;;;;;-145.79;33.01;78250.66;5260703;28;20376;-73
2023/04/19 11:45:46;;;;;;;4.78;2.72;;;;;;;-145.79;33.42;78244.28;5250350;28;20021;-72
2023/04/19 11:48:17;;;;;;;3.33;2.30;;;;;;;-145.79;35.32;78210.38;5260678;28;20027;-73
2023/04/19 11:50:48;;;;;;;3.72;2.88;;;;;;;-145.79;34.65;78199.78;5261042;28;20108;-73
2023/04/19 11:53:21;;;;;;;5.60;3.08;;;;;;;-145.79;33.58;78195.53;5260901;28;20111;-73
2023/04/19 11:55:53;;;;;;;4.88;2.45;;;;;;;-145.79;34.10;78197.66;5260318;28;20559;-72
2023/04/19 11:58:28;;;;;;;5.57;3.10;;;;;;;-145.79;33.57;78182.81;5245065;28;20112;-73
2023/04/19 12:01:05;;;;;;;;;;;;;;;-145.79;32.51;78148.91;5251360;28;20082;-72
2023/04/19 12:03:46;;;;;;;3.58;3.17;;;;;;;-145.79;32.24;78195.53;5250565;28;19999;-71
2023/04/19 12:06:26;;;;;;;3.40;2.45;;;;;;;-145.79;32.45;78167.97;5260636;28;20025;-72
2023/04/19 12:08:57;;;;;;;4.72;2.58;;;;;;;-145.79;32.43;78170.09;5241491;28;20103;-72
2023/04/19 12:11:45;;;;;;;3.95;2.70;;;;;;;-145.79;32.20;78151.00;5243953;28;20057;-72
2023/04/19 12:14:20;;;;;;;5.60;2.88;;;;;;;-145.79;31.88;78136.19;5243998;28;20115;-74
2023/04/19 12:17:14;;;;;;;3.33;2.58;;;;;;;-145.79;31.41;78136.19;5243169;28;20040;-75
2023/04/19 12:19:46;;;;;;;4.00;3.50;;;;;;;-145.79;30.53;78119.22;5243409;28;20032;-73
2023/04/19 12:22:19;;;;;;;4.00;2.53;;;;;;;-145.79;29.14;78140.41;5243300;28;20471;-72
2023/04/19 12:24:52;;;;;;;4.78;2.95;;;;;;;-145.79;30.08;78106.50;5242891;28;20087;-75
2023/04/19 12:27:24;;;;;;;3.70;2.17;;;;;;;-145.79;29.07;78078.94;5243703;28;20109;-74
2023/04/19 12:29:55;;;;;;;3.80;2.65;;;;;;;-145.79;29.44;78061.97;5242677;28;20032;-75
2023/04/19 12:32:27;;;;;;;5.80;3.30;;;;;;;-145.79;30.02;78053.50;5247909;28;20461;-74
2023/04/19 12:34:58;;;;;;;4.78;2.63;;;;;;;-145.79;30.90;78028.06;5252149;28;20021;-77
2023/04/19 12:37:29;;;;;;;3.28;2.63;;;;;;;-145.79;31.07;78032.28;5261916;28;20029;-74
2023/04/19 12:40:04;;;;;;;3.53;2.33;;;;;;;-145.79;30.70;78023.81;5263905;28;20035;-74
2023/04/19 12:42:35;;;;;;;3.35;2.75;;;;;;;-145.79;29.98;78008.97;5253403;28;20025;-74
2023/04/19 12:45:07;;;;;;;5.10;3.10;;;;;;;-145.79;30.03;78017.44;5242512;28;20021;-75
2023/04/19 12:47:39;;;;;;;3.53;2.92;;;;;;;-145.79;30.14;78002.63;5243794;28;20491;-74
2023/04/19 12:50:12;;;;;;;4.38;2.80;;;;;;;-145.79;29.19;78013.22;5263199;28;20029;-75
2023/04/19 12:52:44;;;;;;;5.18;2.63;;;;;;;-145.79;28.46;78013.22;5263458;28;20024;-75
2023/04/19 12:55:15;;;;;;;2.92;2.50;;;;;;;-145.79;29.00;77992.00;5249295;28;20385;-74
2023/04/19 12:57:50;;;;;;;7.03;3.30;;;;;;;-145.79;29.18;77983.53;5243126;28;20121;-73
2023/04/19 13:00:21;;;;;;;5.28;3.25;;;;;;;-145.79;27.41;77989.91;5242224;28;20337;-74
2023/04/19 13:02:53;;;;;;;5.53;3.03;;;;;;;-145.79;29.67;77977.19;5242733;28;20025;-72
2023/04/19 13:05:24;;;;;;;5.40;2.55;;;;;;;-145.79;27.48;77989.91;5249333;28;20029;-74
2023/04/19 13:07:55;;;;;;;3.47;2.92;;;;;;;-145.79;27.26;77989.91;5263788;28;20087;-74
2023/04/19 13:10:27;;;;;;;6.55;4.05;;;;;;;-145.79;26.94;77953.84;5263131;28;20025;-74
2023/04/19 13:12:59;;;;;;;5.32;2.70;;;;;;;-145.79;26.60;77951.72;5262907;28;20445;-74
2023/04/19 13:15:30;;;;;;;4.43;3.03;;;;;;;-145.79;26.95;77928.41;5263421;28;20025;-74
2023/04/19 13:18:02;;;;;;;3.72;2.38;;;;;;;-145.79;26.92;77924.19;5263381;28;20032;-73
2023/04/19 13:20:33;;;;;;;2.83;2.40;;;;;;;-145.79;27.82;77924.19;5262786;28;20056;-73
2023/04/19 13:23:04;;;;;;;3.75;2.33;;;;;;;-145.79;26.05;77902.97;5250380;28;20057;-73
2023/04/19 13:25:35;;;;;;;3.08;2.35;;;;;;;-145.79;25.46;77907.22;5242218;28;20021;-73
2023/04/19 13:28:07;;;;;;;3.42;2.67;;;;;;;-145.79;25.82;77856.34;5249970;28;20025;-73
2023/04/19 13:30:38;;;;;;;3.75;2.20;;;;;;;-145.79;27.30;77860.56;5243066;28;20018;-73
2023/04/19 13:33:09;;;;;;;5.88;2.72;;;;;;;-145.79;26.38;77818.19;5241968;28;20028;-74
2023/04/19 13:35:41;;;;;;;2.80;2.53;;;;;;;-145.79;26.47;77826.66;5242375;28;20120;-74
2023/04/19 13:38:12;;;;;;;3.30;2.10;;;;;;;-145.79;27.00;77818.19;5241900;28;20029;-74
2023/04/19 13:40:44;;;;;;;4.00;2.50;;;;;;;-145.79;26.32;77811.81;5259551;28;20061;-73
2023/04/19 13:43:15;;;;;;;3.97;2.03;;;;;;;-145.79;25.99;77796.97;5258383;28;20111;-73
2023/04/19 13:45:46;;;;;;;3.13;2.70;;;;;;;-145.79;25.57;77796.97;5246097;28;20112;-73
2023/04/19 13:48:18;;;;;;;3.72;2.83;;;;;;;-145.79;26.19;77794.88;5245636;28;20033;-73
2023/04/19 13:50:51;;;;;;;7.15;2.70;;;;;;;-145.79;25.54;77780.03;5258210;28;20033;-74
2023/04/19 13:53:23;;;;;;;21.10;18.80;;;;;;;-145.79;26.25;77777.91;5252996;28;20105;-74
2023/04/19 13:55:55;;;;;;;3.50;3.20;;;;;;;-145.79;26.30;77771.53;5242661;28;20438;-74
2023/04/19 13:58:26;;;;;;;8.93;3.05;;;;;;;-145.79;26.83;77763.06;5254358;28;20079;-73
2023/04/19 14:00:58;;;;;;;3.85;3.00;;;;;;;-145.79;26.36;77813.94;5242109;28;20083;-73
2023/04/19 14:03:30;;;;;;;5.05;2.78;;;;;;;-145.79;26.13;77788.50;5259378;28;20029;-74
2023/04/19 14:06:01;;;;;;;5.93;3.20;;;;;;;-145.79;26.36;77754.59;5254160;28;20033;-72
2023/04/19 14:08:32;;;;;;;3.08;2.85;;;;;;;-145.79;26.98;77746.09;5260899;28;20094;-74
2023/04/19 14:11:05;;;;;;;5.32;4.35;;;;;;;-145.79;26.74;77760.94;5261304;28;20025;-74
2023/04/19 14:13:36;;;;;;;4.03;3.05;;;;;;;-145.79;27.21;77737.63;5251976;28;20029;-73
2023/04/19 14:16:07;;;;;;;7.93;3.30;;;;;;;-145.79;26.68;77735.50;5239912;28;20042;-76
2023/04/19 14:18:39;;;;;;;3.95;3.08;;;;;;;-145.79;27.08;77727.03;5240687;28;20033;-76
2023/04/19 14:21:10;;;;;;;4.18;2.90;;;;;;;-145.79;27.04;77691.00;5240107;28;20045;-74
2023/04/19 14:23:42;;;;;;;5.95;2.85;;;;;;;-145.79;27.10;77712.19;5242101;28;20029;-73
2023/04/19 14:26:13;;;;;;;7.20;3.60;;;;;;;-145.79;26.72;77718.56;5248737;28;20437;-73
2023/04/19 14:28:44;;;;;;;4.72;3.17;;;;;;;-145.79;26.54;77720.66;5261088;28;20020;-72
2023/04/19 14:31:16;;;;;;;5.82;3.95;;;;;;;-145.79;26.84;77716.44;5245456;28;20115;-73
2023/04/19 14:33:47;;;;;;;7.85;3.22;;;;;;;-145.79;27.27;77746.09;5253952;28;20014;-73
2023/04/19 14:36:18;;;;;;;5.38;3.42;;;;;;;-145.79;26.94;77691.00;5241389;28;20119;-72
2023/04/19 14:38:50;;;;;;;5.65;3.20;;;;;;;-145.79;26.33;77695.22;5239710;28;20410;-74
2023/04/19 14:41:22;;;;;;;4.65;3.38;;;;;;;-145.79;27.52;77674.03;5240137;28;20056;-73
2023/04/19 14:43:55;;;;;;;6.45;3.25;;;;;;;-145.79;27.28;77665.56;5239733;28;20022;-73
2023/04/19 14:46:26;;;;;;;18.23;13.02;;;;;;;-145.79;26.91;77686.75;5239969;28;20053;-73
2023/04/19 14:49:04;;;;;;;7.50;5.00;;;;;;;-145.79;27.06;77684.63;5254871;28;20136;-73
2023/04/19 14:51:36;;;;;;;8.60;3.70;;;;;;;-145.79;26.47;77699.47;5253243;28;20089;-74
2023/04/19 14:54:07;;;;;;;6.55;3.72;;;;;;;-145.79;26.64;77710.06;5245852;28;20029;-74
2023/04/19 14:56:38;;;;;;;6.38;3.33;;;;;;;-145.79;26.98;77707.94;5241586;28;20097;-75
2023/04/19 14:59:10;;;;;;;5.53;3.17;;;;;;;-145.79;26.96;77731.28;5240947;28;20029;-74
2023/04/19 15:01:41;;;;;;;5.38;3.72;;;;;;;-145.79;27.64;77724.91;5240164;28;20207;-72
2023/04/19 15:04:12;;;;;;;7.30;3.90;;;;;;;-145.79;27.55;77741.88;5243796;28;20029;-73
2023/04/19 15:06:44;;;;;;;7.03;3.88;;;;;;;-145.79;28.39;77760.94;5250362;28;20477;-74
2023/04/19 15:09:15;;;;;;;4.63;3.38;;;;;;;-145.79;27.57;77733.38;5262020;28;20151;-74
2023/04/19 15:11:46;;;;;;;20.58;16.10;;;;;;;-145.79;28.65;77707.94;5244642;28;20055;-74
2023/04/19 15:14:18;;;;;;;11.88;10.02;;;;;;;-145.79;29.04;77716.44;5248673;28;20020;-74
2023/04/19 15:16:50;;;;;;;4.32;3.90;;;;;;;-145.79;27.51;77718.56;5281827;28;20020;-73
2023/04/19 15:19:21;;;;;;;10.77;4.35;;;;;;;-145.79;28.44;77724.91;5281584;28;20120;-73
2023/04/19 15:21:52;;;;;;;6.40;3.63;;;;;;;-145.79;27.66;77746.09;5258676;28;20450;-75
2023/04/19 15:24:24;;;;;;;6.35;4.57;;;;;;;-145.79;30.39;77703.72;5240913;28;20480;-75
2023/04/19 15:26:55;;;;;;;7.07;4.03;;;;;;;-145.79;28.56;77686.75;5241374;28;20105;-75
2023/04/19 15:29:29;;;;;;;5.40;3.83;;;;;;;-145.79;27.66;77707.94;5251814;28;20014;-75
2023/04/19 15:32:01;;;;;;;4.60;3.50;;;;;;;-145.79;27.84;77707.94;5259293;28;20384;-75
2023/04/19 15:34:33;;;;;;;7.55;4.20;;;;;;;-145.79;28.07;77703.72;5253133;28;20025;-75
2023/04/19 15:37:07;;;;;;;4.60;3.45;;;;;;;-145.79;28.22;77674.03;5250279;28;20477;-75
2023/04/19 15:39:38;;;;;;;8.00;3.50;;;;;;;-145.79;27.19;77744.00;5240826;28;20025;-75
2023/04/19 15:42:10;;;;;;;6.45;4.07;;;;;;;-145.79;27.79;77750.34;5251185;28;20499;-74
2023/04/19 15:44:41;;;;;;;4.78;3.80;;;;;;;-145.79;28.28;77731.28;5244116;28;20153;-75
2023/04/19 15:47:13;;;;;;;7.25;4.07;;;;;;;-145.79;27.79;77744.00;5259266;28;20466;-73
2023/04/19 15:49:46;;;;;;;5.95;3.95;;;;;;;-145.79;28.51;77716.44;5244720;28;20105;-73
2023/04/19 15:52:18;;;;;;;4.90;4.05;;;;;;;-145.79;28.96;77727.03;5245754;28;20060;-73
2023/04/19 15:54:49;;;;;;;5.03;3.55;;;;;;;-145.79;27.89;77729.16;5262032;28;20084;-74
2023/04/19 15:57:21;;;;;;;5.63;3.83;;;;;;;-145.79;27.82;77737.63;5244625;28;20097;-73
2023/04/19 15:59:52;;;;;;;7.15;3.83;;;;;;;-145.79;28.16;77739.75;5245419;28;20037;-76
2023/04/19 16:02:23;;;;;;;6.03;3.78;;;;;;;-145.79;27.74;77699.47;5243836;28;20089;-76
2023/04/19 16:04:54;;;;;;;5.20;3.42;;;;;;;-145.79;27.69;77705.84;5244416;28;20032;-76
2023/04/19 16:07:27;;;;;;;4.20;3.22;;;;;;;-145.79;27.99;77707.94;5257055;28;20099;-76
2023/04/19 16:09:59;;;;;;;5.40;3.70;;;;;;;-145.79;28.29;77750.34;5264486;28;20021;-75
2023/04/19 16:12:32;;;;;;;6.10;5.32;;;;;;;-145.79;28.25;77780.03;5255472;28;20032;-76
2023/04/19 16:15:04;;;;;;;4.57;4.18;;;;;;;-145.79;28.54;77760.94;5250114;28;20026;-75
2023/04/19 16:17:37;;;;;;;5.47;3.97;;;;;;;-145.79;29.99;77756.72;5247117;28;20107;-78
2023/04/19 16:20:09;;;;;;;6.00;4.63;;;;;;;-145.79;29.41;77716.44;5248025;28;20463;-78
2023/04/19 16:22:40;;;;;;;10.48;9.38;;;;;;;-145.79;29.78;77754.59;5260725;28;20136;-75
2023/04/19 16:25:13;;;;;;;8.45;4.32;;;;;;;-145.79;29.21;77760.94;5256371;28;20049;-76
2023/04/19 16:27:45;;;;;;;5.13;4.30;;;;;;;-145.79;28.96;77746.09;5243696;28;20025;-75
2023/04/19 16:30:19;;;;;;;7.18;4.53;;;;;;;-145.79;29.47;77754.59;5257579;28;20025;-75
2023/04/19 16:32:50;;;;;;;8.18;4.18;;;;;;;-145.79;29.24;77733.38;5258519;28;20547;-74
2023/04/19 16:35:22;;;;;;;4.60;3.90;;;;;;;-145.79;29.92;77752.47;5253789;28;20025;-76
2023/04/19 16:37:55;;;;;;;6.65;4.50;;;;;;;-145.79;29.11;77737.63;5243422;28;20024;-75
2023/04/19 16:40:26;;;;;;;7.88;5.28;;;;;;;-145.79;29.29;77750.34;5261712;28;20441;-76
2023/04/19 16:42:58;;;;;;;5.28;3.80;;;;;;;-145.79;29.67;77746.09;5264006;28;20033;-74
2023/04/19 16:45:29;;;;;;;5.32;3.97;;;;;;;-145.79;28.92;77767.31;5263101;28;20032;-74
2023/04/19 16:48:00;;;;;;;8.55;4.93;;;;;;;-145.79;29.61;77763.06;5258846;28;20060;-75
2023/04/19 16:50:32;;;;;;;5.70;3.97;;;;;;;-145.79;29.80;77758.81;5262981;28;20033;-74
2023/04/19 16:53:03;;;;;;;4.32;3.70;;;;;;;-145.79;29.07;77750.34;5264025;28;20037;-73
